Time;durP1;ratioP1;P1;durP2;ratioP2;P2;SDS_P1;SDS_P2;PMS_P1;PMS_P2;Temp;Humidity;BMP_temperature;BMP_pressure;BME280_temperature;BME280_humidity;BME280_pressure;Samples;Min_cycle;Max_cycle;Signal;HPM_P1;HPM_P2
2024/01/27 00:00:43;;;;;;;1.17;1.17;;;;;;;-2.02;100.00;100292.00;4988542;28;20074;-90
2024/01/27 00:03:09;;;;;;;1.10;1.10;;;;;;;-2.19;100.00;100296.44;4988815;28;20061;-91
2024/01/27 00:05:34;;;;;;;1.10;1.10;;;;;;;-2.24;100.00;100294.13;5000074;28;20066;-91
2024/01/27 00:08:00;;;;;;;1.10;1.10;;;;;;;-2.50;100.00;100291.38;4962005;28;20504;-90
2024/01/27 00:10:25;;;;;;;1.10;1.10;;;;;;;-2.11;100.00;100291.97;4985419;28;20084;-91
2024/01/27 00:12:50;;;;;;;1.10;1.10;;;;;;;-2.31;100.00;100300.38;4981464;28;20042;-91
2024/01/27 00:15:16;;;;;;;1.10;1.10;;;;;;;-2.34;100.00;100297.47;4980352;28;20050;-90
2024/01/27 00:17:41;;;;;;;1.10;1.10;;;;;;;-2.31;100.00;100300.38;4995427;28;20041;-92
2024/01/27 00:20:08;;;;;;;1.20;1.20;;;;;;;-2.56;100.00;100315.19;4978408;28;20485;-91
2024/01/27 00:22:34;;;;;;;1.10;1.10;;;;;;;-2.48;100.00;100316.91;4995204;28;20061;-91
2024/01/27 00:24:59;;;;;;;1.10;1.10;;;;;;;-2.72;100.00;100316.94;4979021;28;20034;-90
2024/01/27 00:27:25;;;;;;;1.10;1.10;;;;;;;-2.69;100.00;100312.03;4999959;28;20037;-90
2024/01/27 00:29:50;;;;;;;1.10;1.10;;;;;;;-2.71;100.00;100316.19;4982001;28;20041;-90
2024/01/27 00:32:15;;;;;;;1.10;1.10;;;;;;;-2.46;100.00;100310.16;4983621;28;20510;-92
2024/01/27 00:34:41;;;;;;;1.10;1.10;;;;;;;-2.65;100.00;100324.66;4995498;28;20070;-91
2024/01/27 00:37:06;;;;;;;1.20;1.20;;;;;;;-2.62;100.00;100320.69;4979851;28;20045;-91
2024/01/27 00:39:32;;;;;;;1.20;1.20;;;;;;;-2.76;100.00;100322.59;4979845;28;20031;-91
2024/01/27 00:41:58;;;;;;;1.20;1.20;;;;;;;-2.50;100.00;100321.03;4997292;28;20037;-91
2024/01/27 00:44:24;;;;;;;1.10;1.10;;;;;;;-2.91;100.00;100321.91;4982139;28;20575;-91
2024/01/27 00:46:50;;;;;;;1.20;1.20;;;;;;;-3.06;100.00;100320.25;5002962;28;20042;-94
2024/01/27 00:49:15;;;;;;;1.20;1.20;;;;;;;-2.79;100.00;100317.03;5011916;28;20057;-91
2024/01/27 00:51:41;;;;;;;1.10;1.10;;;;;;;-2.95;100.00;100322.31;5009298;28;20038;-92
2024/01/27 00:54:06;;;;;;;1.20;1.20;;;;;;;-3.06;100.00;100322.88;4974263;28;20033;-92
2024/01/27 00:56:34;;;;;;;1.10;1.10;;;;;;;-3.25;100.00;100328.72;4995992;28;20050;-91
2024/01/27 00:58:59;;;;;;;1.20;1.20;;;;;;;-3.01;100.00;100326.91;5007734;28;20173;-93
2024/01/27 01:01:25;;;;;;;1.20;1.20;;;;;;;-3.16;100.00;100314.06;4999509;28;20053;-94
2024/01/27 01:03:50;;;;;;;1.20;1.20;;;;;;;-3.33;100.00;100323.41;5016422;28;20051;-94
2024/01/27 01:06:16;;;;;;;1.20;1.20;;;;;;;-3.39;100.00;100322.00;5017715;28;20022;-92
2024/01/27 01:08:41;;;;;;;1.20;1.20;;;;;;;-3.16;100.00;100332.31;4989720;28;20077;-91
2024/01/27 01:11:07;;;;;;;1.10;1.10;;;;;;;-3.07;100.00;100319.31;4982917;28;20100;-91
2024/01/27 01:13:32;;;;;;;1.20;1.20;;;;;;;-3.00;100.00;100323.53;5001843;28;20033;-93
2024/01/27 01:15:58;;;;;;;1.20;1.20;;;;;;;-3.16;100.00;100327.09;4981217;28;20100;-91
2024/01/27 01:18:23;;;;;;;1.20;1.20;;;;;;;-3.24;100.00;100338.38;4989075;28;20046;-93
2024/01/27 01:20:49;;;;;;;1.20;1.20;;;;;;;-3.32;100.00;100344.44;4995598;28;20038;-92
2024/01/27 01:23:14;;;;;;;1.20;1.20;;;;;;;-3.36;100.00;100347.47;4980860;28;20033;-88
2024/01/27 01:25:41;;;;;;;1.15;1.15;;;;;;;-3.16;100.00;100354.88;5015964;28;20093;-94
2024/01/27 01:28:07;;;;;;;1.20;1.20;;;;;;;-3.38;100.00;100352.53;4987928;28;20053;-95
2024/01/27 01:30:32;;;;;;;1.17;1.17;;;;;;;-3.56;100.00;100358.34;4976691;28;20042;-90
2024/01/27 01:32:58;;;;;;;1.20;1.20;;;;;;;-3.69;100.00;100365.56;4998363;28;20030;-91
2024/01/27 01:35:24;;;;;;;1.20;1.20;;;;;;;-3.40;100.00;100359.28;4981917;28;20039;-91
2024/01/27 01:37:50;;;;;;;1.20;1.20;;;;;;;-3.03;100.00;100345.00;4978951;28;20027;-91
2024/01/27 01:40:15;;;;;;;1.10;1.10;;;;;;;-3.21;100.00;100349.16;4997250;28;20088;-91
2024/01/27 01:42:41;;;;;;;1.10;1.10;;;;;;;-3.19;100.00;100358.06;5002291;28;20041;-91
2024/01/27 01:45:10;;;;;;;1.20;1.20;;;;;;;-3.26;100.00;100357.22;4978852;28;20648;-90
2024/01/27 01:47:36;;;;;;;1.20;1.20;;;;;;;-3.25;100.00;100356.50;4979038;28;20665;-91
2024/01/27 01:50:02;;;;;;;1.20;1.20;;;;;;;-2.89;100.00;100354.31;5004083;28;20507;-91
2024/01/27 01:52:28;;;;;;;1.20;1.20;;;;;;;-3.08;100.00;100342.66;4998738;28;20053;-91
2024/01/27 01:54:53;;;;;;;1.10;1.10;;;;;;;-3.06;100.00;100347.28;4983859;28;20140;-92
2024/01/27 01:57:19;;;;;;;1.20;1.20;;;;;;;-3.38;100.00;100349.00;4981542;28;20030;-91
2024/01/27 01:59:45;;;;;;;1.20;1.20;;;;;;;-3.41;100.00;100360.03;4996988;28;20097;-91
2024/01/27 02:02:12;;;;;;;1.20;1.20;;;;;;;-3.43;100.00;100358.03;4972533;28;20057;-91
2024/01/27 02:04:45;;;;;;;1.20;1.20;;;;;;;-3.21;100.00;100363.88;4996010;28;20035;-91
2024/01/27 02:07:11;;;;;;;1.20;1.20;;;;;;;-3.01;100.00;100364.38;4987550;28;20041;-91
2024/01/27 02:09:37;;;;;;;1.10;1.10;;;;;;;-3.25;100.00;100367.88;4979280;28;20120;-90
2024/01/27 02:12:05;;;;;;;1.20;1.20;;;;;;;-3.50;100.00;100377.28;4997172;28;20472;-91
2024/01/27 02:14:30;;;;;;;1.20;1.20;;;;;;;-3.55;100.00;100382.75;4965300;28;20409;-91
2024/01/27 02:16:57;;;;;;;1.20;1.20;;;;;;;-3.73;100.00;100385.19;4998206;28;20026;-92
2024/01/27 02:19:23;;;;;;;1.20;1.20;;;;;;;-3.52;100.00;100391.84;5004310;28;20034;-90
2024/01/27 02:21:49;;;;;;;1.20;1.20;;;;;;;-3.57;100.00;100384.28;4986454;28;20038;-90
2024/01/27 02:24:15;;;;;;;1.20;1.20;;;;;;;-3.69;100.00;100391.66;4994258;28;20121;-91
2024/01/27 02:26:42;;;;;;;1.20;1.20;;;;;;;-3.64;100.00;100390.47;4996500;28;20506;-91
2024/01/27 02:29:07;;;;;;;1.10;1.10;;;;;;;-3.55;100.00;100408.84;4979925;28;20027;-90
2024/01/27 02:31:32;;;;;;;1.20;1.20;;;;;;;-3.61;100.00;100406.47;4978766;28;20062;-93
2024/01/27 02:34:00;;;;;;;1.13;1.13;;;;;;;-3.71;100.00;100414.03;4997742;28;20062;-92
2024/01/27 02:36:25;;;;;;;1.20;1.20;;;;;;;-3.60;100.00;100423.97;4993926;28;20018;-91
2024/01/27 02:38:50;;;;;;;1.13;1.13;;;;;;;-3.50;100.00;100426.84;4995879;28;20042;-91
2024/01/27 02:41:17;;;;;;;1.10;1.10;;;;;;;-3.44;100.00;100416.19;4999492;28;20021;-92
2024/01/27 02:43:43;;;;;;;1.17;1.17;;;;;;;-3.63;100.00;100428.88;4997883;28;20048;-90
2024/01/27 02:46:11;;;;;;;1.20;1.20;;;;;;;-3.63;100.00;100437.63;4983112;28;20508;-91
2024/01/27 02:48:41;;;;;;;1.20;1.20;;;;;;;-3.52;100.00;100443.09;4981676;28;20044;-90
2024/01/27 02:51:08;;;;;;;1.20;1.20;;;;;;;-3.79;100.00;100433.09;4991187;28;20069;-91
2024/01/27 02:53:34;;;;;;;1.20;1.20;;;;;;;-3.73;100.00;100434.75;4985443;28;20038;-93
2024/01/27 02:55:59;;;;;;;1.20;1.20;;;;;;;-3.51;100.00;100440.66;4996993;28;20033;-92
2024/01/27 02:58:26;;;;;;;1.20;1.20;;;;;;;-3.53;100.00;100447.38;4981274;28;20058;-90
2024/01/27 03:00:53;;;;;;;1.20;1.20;;;;;;;-3.78;100.00;100448.94;4988196;28;20043;-91
2024/01/27 03:03:20;;;;;;;1.20;1.20;;;;;;;-3.90;100.00;100448.47;4975976;28;20023;-91
2024/01/27 03:05:46;;;;;;;1.10;1.10;;;;;;;-3.92;100.00;100428.22;4975291;28;20034;-90
2024/01/27 03:08:11;;;;;;;1.20;1.20;;;;;;;-3.79;100.00;100439.25;4980199;28;20093;-91
2024/01/27 03:10:37;;;;;;;1.20;1.20;;;;;;;-3.75;100.00;100438.84;5001653;28;20034;-91
2024/01/27 03:13:02;;;;;;;1.20;1.20;;;;;;;-4.07;100.00;100439.50;4990644;28;20038;-91
2024/01/27 03:15:28;;;;;;;1.20;1.20;;;;;;;-4.19;100.00;100436.44;4994693;28;20044;-91
2024/01/27 03:17:53;;;;;;;1.20;1.20;;;;;;;-4.23;100.00;100434.25;4979208;28;20052;-92
2024/01/27 03:20:18;;;;;;;1.20;1.20;;;;;;;-4.48;100.00;100444.47;4977630;28;20398;-91
2024/01/27 03:22:44;;;;;;;1.20;1.20;;;;;;;-4.13;100.00;100437.13;4979400;28;20412;-91
2024/01/27 03:25:10;;;;;;;1.20;1.20;;;;;;;-4.11;100.00;100443.47;4980227;28;20392;-89
2024/01/27 03:27:36;;;;;;;1.30;1.30;;;;;;;-3.82;100.00;100445.81;4998336;28;20045;-90
2024/01/27 03:30:03;;;;;;;1.20;1.20;;;;;;;-3.96;100.00;100442.59;4963035;28;20039;-90
2024/01/27 03:32:32;;;;;;;1.20;1.20;;;;;;;-4.01;100.00;100443.75;4981830;28;20033;-92
2024/01/27 03:35:02;;;;;;;1.20;1.20;;;;;;;-4.16;100.00;100447.22;4995686;28;20038;-90
2024/01/27 03:37:27;;;;;;;1.20;1.20;;;;;;;-4.34;100.00;100443.44;4985839;28;20073;-93
2024/01/27 03:39:53;;;;;;;1.20;1.20;;;;;;;-4.35;100.00;100439.00;5007763;28;20039;-92
2024/01/27 03:42:19;;;;;;;1.30;1.30;;;;;;;-4.39;100.00;100442.00;5008943;28;20030;-92
2024/01/27 03:44:45;;;;;;;1.20;1.20;;;;;;;-4.46;100.00;100444.63;4998997;28;20080;-91
2024/01/27 03:47:10;;;;;;;1.20;1.20;;;;;;;-4.48;100.00;100449.69;4996197;28;20030;-95
2024/01/27 03:49:37;;;;;;;1.20;1.20;;;;;;;-4.49;100.00;100450.44;5005907;28;20081;-91
2024/01/27 03:52:03;;;;;;;1.10;1.10;;;;;;;-4.49;100.00;100454.72;5003692;28;20061;-90
2024/01/27 03:54:29;;;;;;;1.27;1.27;;;;;;;-4.42;100.00;100459.88;4982155;28;20404;-91
2024/01/27 03:56:54;;;;;;;1.20;1.20;;;;;;;-4.71;100.00;100461.72;4983543;28;20026;-93
2024/01/27 03:59:20;;;;;;;1.20;1.20;;;;;;;-4.70;100.00;100459.28;4983632;28;20567;-90
2024/01/27 04:01:45;;;;;;;1.20;1.20;;;;;;;-4.81;100.00;100466.63;4980643;28;20040;-91
2024/01/27 04:04:12;;;;;;;1.20;1.20;;;;;;;-4.84;100.00;100467.16;4975490;28;20113;-90
2024/01/27 04:06:39;;;;;;;;;;;;;;;-4.65;100.00;100462.41;4981243;28;20035;-89
2024/01/27 04:09:04;;;;;;;1.30;1.30;;;;;;;-4.67;100.00;100464.84;4977393;28;19965;-90
2024/01/27 04:11:30;;;;;;;1.20;1.20;;;;;;;-4.61;100.00;100463.72;4976938;28;20053;-90
2024/01/27 04:13:55;;;;;;;1.20;1.20;;;;;;;-4.55;100.00;100465.38;4973867;28;20034;-89
2024/01/27 04:16:21;;;;;;;1.30;1.30;;;;;;;-4.37;100.00;100466.53;4996806;28;20062;-90
2024/01/27 04:18:46;;;;;;;1.30;1.30;;;;;;;-4.56;100.00;100468.69;4975462;28;20042;-90
2024/01/27 04:21:12;;;;;;;1.25;1.25;;;;;;;-4.93;100.00;100473.94;4973893;28;20126;-89
2024/01/27 04:23:37;;;;;;;1.20;1.20;;;;;;;-4.66;100.00;100471.91;4990557;28;20188;-89
2024/01/27 04:26:03;;;;;;;1.20;1.20;;;;;;;-4.57;100.00;100466.84;4974315;28;20068;-90
2024/01/27 04:28:30;;;;;;;1.20;1.20;;;;;;;-4.70;100.00;100480.13;4992303;28;20512;-90
2024/01/27 04:30:55;;;;;;;1.20;1.20;;;;;;;-4.63;100.00;100476.56;4975154;28;20112;-90
2024/01/27 04:33:21;;;;;;;1.17;1.17;;;;;;;-4.58;100.00;100475.41;4975459;28;20585;-90
2024/01/27 04:35:46;;;;;;;1.20;1.20;;;;;;;-4.72;100.00;100479.03;4978393;28;20037;-89
2024/01/27 04:38:12;;;;;;;1.20;1.20;;;;;;;-4.65;100.00;100475.44;4979123;28;20034;-89
2024/01/27 04:40:38;;;;;;;1.20;1.20;;;;;;;-4.52;100.00;100483.94;5006929;28;20116;-88
2024/01/27 04:43:04;;;;;;;1.30;1.30;;;;;;;-4.82;100.00;100483.00;4990380;28;20132;-88
2024/01/27 04:45:30;;;;;;;1.30;1.30;;;;;;;-4.51;100.00;100477.97;4988042;28;20049;-89
2024/01/27 04:47:56;;;;;;;1.30;1.30;;;;;;;-4.68;100.00;100493.34;4983545;28;20038;-89
2024/01/27 04:50:22;;;;;;;1.30;1.30;;;;;;;-4.63;100.00;100502.59;4980307;28;20041;-90
2024/01/27 04:52:47;;;;;;;1.20;1.20;;;;;;;-4.55;100.00;100499.22;4988253;28;20145;-88
2024/01/27 04:55:13;;;;;;;1.20;1.20;;;;;;;-4.54;100.00;100492.34;4994841;28;20050;-88
2024/01/27 04:57:38;;;;;;;1.20;1.20;;;;;;;-4.73;100.00;100511.03;4979636;28;20034;-88
2024/01/27 05:00:07;;;;;;;1.20;1.20;;;;;;;-4.69;100.00;100501.91;4990032;28;20034;-91
2024/01/27 05:02:33;;;;;;;1.30;1.30;;;;;;;-4.80;100.00;100502.31;4985624;28;20038;-93
2024/01/27 05:04:59;;;;;;;1.30;1.30;;;;;;;-4.83;100.00;100502.88;4988398;28;20026;-90
2024/01/27 05:07:24;;;;;;;1.20;1.20;;;;;;;-4.70;100.00;100505.22;4980041;28;20120;-89
2024/01/27 05:09:50;;;;;;;1.30;1.30;;;;;;;-4.47;100.00;100506.22;4972514;28;20050;-91
2024/01/27 05:12:16;;;;;;;1.30;1.30;;;;;;;-4.52;100.00;100496.03;4989681;28;20058;-93
2024/01/27 05:14:48;;;;;;;1.25;1.25;;;;;;;-5.01;100.00;100501.66;5009525;28;20050;-92
2024/01/27 05:17:13;;;;;;;1.30;1.30;;;;;;;-5.23;100.00;100508.59;4980910;28;20066;-92
2024/01/27 05:19:38;;;;;;;1.20;1.20;;;;;;;-4.93;100.00;100511.31;4991024;28;20041;-90
2024/01/27 05:22:05;;;;;;;1.20;1.20;;;;;;;-5.02;100.00;100510.22;5001221;28;20508;-89
2024/01/27 05:24:32;;;;;;;1.25;1.25;;;;;;;-5.09;100.00;100511.91;4982781;28;20043;-89
2024/01/27 05:26:57;;;;;;;1.20;1.20;;;;;;;-5.08;100.00;100516.34;4980114;28;20027;-91
2024/01/27 05:29:23;;;;;;;1.20;1.20;;;;;;;-5.34;100.00;100519.41;4976809;28;20089;-89
2024/01/27 05:31:49;;;;;;;1.20;1.20;;;;;;;-5.40;99.68;100518.69;4995698;28;20045;-90
2024/01/27 05:34:14;;;;;;;1.20;1.20;;;;;;;-5.36;100.00;100523.50;4979450;28;20062;-88
2024/01/27 05:36:41;;;;;;;1.20;1.20;;;;;;;-5.42;100.00;100525.34;4981601;28;20044;-89
2024/01/27 05:39:06;;;;;;;1.20;1.20;;;;;;;-5.27;100.00;100526.25;4975772;28;20026;-89
2024/01/27 05:41:32;;;;;;;1.30;1.30;;;;;;;-4.96;100.00;100516.13;4977150;28;20465;-89
2024/01/27 05:43:58;;;;;;;1.30;1.30;;;;;;;-4.70;100.00;100516.56;4976847;28;20034;-89
2024/01/27 05:46:27;;;;;;;1.20;1.20;;;;;;;-4.91;100.00;100525.41;4979449;28;20072;-89
2024/01/27 05:48:54;;;;;;;1.30;1.30;;;;;;;-5.06;100.00;100522.69;4991953;28;20039;-90
2024/01/27 05:51:28;;;;;;;1.30;1.30;;;;;;;-5.05;100.00;100530.66;4978487;28;20149;-88
2024/01/27 05:54:02;;;;;;;1.30;1.30;;;;;;;-4.87;100.00;100525.78;4976935;28;20033;-88
2024/01/27 05:56:28;;;;;;;1.20;1.20;;;;;;;-4.69;100.00;100522.72;4997791;28;20066;-89
2024/01/27 05:58:57;;;;;;;1.20;1.20;;;;;;;-4.72;100.00;100520.69;4998071;28;20037;-89
2024/01/27 06:01:23;;;;;;;1.30;1.30;;;;;;;-4.95;100.00;100531.00;4984561;28;20030;-88
2024/01/27 06:03:48;;;;;;;1.20;1.20;;;;;;;-4.75;100.00;100527.19;4997251;28;20117;-89
2024/01/27 06:06:14;;;;;;;1.20;1.20;;;;;;;-4.79;100.00;100515.53;4997562;28;20050;-90
2024/01/27 06:08:41;;;;;;;1.25;1.25;;;;;;;-4.89;100.00;100515.16;4980060;28;20092;-89
2024/01/27 06:11:06;;;;;;;1.30;1.30;;;;;;;-4.99;100.00;100526.16;4980414;28;20066;-90
2024/01/27 06:13:33;;;;;;;1.30;1.30;;;;;;;-4.87;100.00;100516.28;4982387;28;20057;-90
2024/01/27 06:15:59;;;;;;;1.30;1.30;;;;;;;-4.87;100.00;100520.56;4978763;28;20037;-90
2024/01/27 06:18:24;;;;;;;1.30;1.30;;;;;;;-5.06;100.00;100523.59;4996103;28;20034;-90
2024/01/27 06:20:50;;;;;;;1.20;1.20;;;;;;;-4.91;100.00;100529.69;4977645;28;20097;-90
2024/01/27 06:23:15;;;;;;;1.30;1.30;;;;;;;-4.88;100.00;100532.66;4999452;28;20034;-90
2024/01/27 06:25:40;;;;;;;1.20;1.20;;;;;;;-4.94;99.92;100530.22;4994602;28;20393;-88
2024/01/27 06:28:06;;;;;;;1.20;1.20;;;;;;;-5.03;100.00;100529.19;4969217;28;20094;-90
2024/01/27 06:30:32;;;;;;;1.20;1.20;;;;;;;-4.92;100.00;100539.19;5004151;28;20119;-90
2024/01/27 06:32:57;;;;;;;1.30;1.30;;;;;;;-5.21;100.00;100530.53;4981607;28;20089;-90
2024/01/27 06:35:22;;;;;;;1.30;1.30;;;;;;;-5.56;98.98;100530.56;4979653;28;20057;-89
2024/01/27 06:37:48;;;;;;;1.20;1.20;;;;;;;-5.36;99.55;100532.97;4994802;28;20031;-90
2024/01/27 06:40:15;;;;;;;1.40;1.40;;;;;;;-5.18;99.96;100535.16;4982128;28;20108;-90
2024/01/27 06:42:40;;;;;;;1.27;1.27;;;;;;;-5.34;99.76;100534.06;4980950;28;20160;-89
2024/01/27 06:45:06;;;;;;;1.30;1.30;;;;;;;-5.46;99.85;100533.53;4980342;28;20042;-90
2024/01/27 06:47:31;;;;;;;1.20;1.20;;;;;;;-5.52;99.64;100540.59;4981999;28;20022;-89
2024/01/27 06:49:57;;;;;;;1.30;1.30;;;;;;;-5.58;99.40;100540.78;4983214;28;20041;-89
2024/01/27 06:52:22;;;;;;;1.27;1.27;;;;;;;-5.21;100.00;100550.41;4983994;28;20117;-89
2024/01/27 06:54:48;;;;;;;1.20;1.20;;;;;;;-5.14;100.00;100555.59;4980247;28;20033;-89
2024/01/27 06:57:21;;;;;;;1.30;1.30;;;;;;;-5.12;99.80;100551.50;4981329;28;20036;-88
2024/01/27 06:59:51;;;;;;;1.30;1.30;;;;;;;-5.51;98.97;100542.44;5003869;28;20570;-91
2024/01/27 07:02:27;;;;;;;1.20;1.20;;;;;;;-5.36;98.80;100551.19;4995304;28;20038;-90
2024/01/27 07:04:53;;;;;;;1.30;1.30;;;;;;;-5.63;98.09;100548.78;4991636;28;20492;-89
2024/01/27 07:07:27;;;;;;;1.30;1.30;;;;;;;-5.46;98.34;100552.69;4982928;28;20022;-88
2024/01/27 07:09:54;;;;;;;1.30;1.30;;;;;;;-5.51;98.13;100556.41;5014159;28;20030;-92
2024/01/27 07:12:19;;;;;;;;;;;;;;;-5.36;98.71;100561.59;4998158;28;20447;-89
2024/01/27 07:14:45;;;;;;;1.20;1.20;;;;;;;-5.11;99.34;100558.56;4976682;28;19918;-89
2024/01/27 07:17:10;;;;;;;1.30;1.30;;;;;;;-4.95;99.59;100563.91;4978293;28;20030;-89
2024/01/27 07:19:36;;;;;;;1.20;1.20;;;;;;;-5.28;98.88;100568.63;5004601;28;20039;-89
2024/01/27 07:22:03;;;;;;;1.27;1.27;;;;;;;-5.27;98.88;100563.63;4996586;28;20049;-87
2024/01/27 07:24:29;;;;;;;1.30;1.30;;;;;;;-5.32;99.01;100571.59;4979965;28;20117;-88
2024/01/27 07:26:54;;;;;;;1.23;1.23;;;;;;;-5.31;99.05;100568.28;4994490;28;20117;-89
2024/01/27 07:29:20;;;;;;;1.30;1.30;;;;;;;-5.39;98.54;100571.63;4995177;28;20030;-90
2024/01/27 07:31:49;;;;;;;1.30;1.30;;;;;;;-4.89;99.09;100567.22;4998873;28;20042;-88
2024/01/27 07:34:18;;;;;;;1.30;1.30;;;;;;;-4.82;99.00;100564.63;5003178;28;20122;-89
2024/01/27 07:36:48;;;;;;;1.30;1.30;;;;;;;-4.75;99.19;100564.56;4998131;28;20145;-88
2024/01/27 07:39:13;;;;;;;1.20;1.20;;;;;;;-4.72;99.10;100570.16;5004284;28;20060;-89
2024/01/27 07:41:48;;;;;;;1.30;1.30;;;;;;;-4.58;99.42;100568.25;5003511;28;20045;-91
2024/01/27 07:44:21;;;;;;;1.20;1.20;;;;;;;-4.35;99.06;100565.72;4994417;28;20030;-89
2024/01/27 07:46:47;;;;;;;1.20;1.20;;;;;;;-4.38;98.92;100569.81;5004554;28;20023;-93
2024/01/27 07:49:15;;;;;;;1.20;1.20;;;;;;;-4.58;98.34;100561.34;5016959;28;20030;-91
2024/01/27 07:51:40;;;;;;;1.30;1.30;;;;;;;-4.61;98.30;100568.81;4995666;28;20113;-92
2024/01/27 07:54:06;;;;;;;1.20;1.20;;;;;;;-4.48;98.82;100563.34;4990062;28;20014;-91
2024/01/27 07:56:35;;;;;;;1.20;1.20;;;;;;;-4.30;99.06;100564.59;5007035;28;20094;-91
2024/01/27 07:59:01;;;;;;;1.30;1.30;;;;;;;-4.34;98.35;100567.56;5008169;28;20042;-89
2024/01/27 08:01:27;;;;;;;1.20;1.20;;;;;;;-4.32;98.04;100574.81;4988436;28;20555;-91
2024/01/27 08:03:52;;;;;;;1.20;1.20;;;;;;;-4.23;98.02;100573.28;5011856;28;20042;-89
2024/01/27 08:06:27;;;;;;;1.20;1.20;;;;;;;-4.26;97.33;100574.63;5004742;28;20027;-89
2024/01/27 08:09:19;;;;;;;1.20;1.20;;;;;;;-3.93;97.99;100568.09;4980601;28;20038;-91
2024/01/27 08:11:45;;;;;;;1.27;1.27;;;;;;;-3.36;97.49;100556.22;4984891;28;20793;-89
2024/01/27 08:14:14;;;;;;;1.30;1.30;;;;;;;-2.79;97.00;100555.63;4980962;28;20049;-89
2024/01/27 08:16:43;;;;;;;1.20;1.20;;;;;;;-2.52;96.23;100547.28;5001699;28;20416;-90
2024/01/27 08:19:08;;;;;;;1.20;1.20;;;;;;;-2.14;96.37;100558.38;5000217;28;20036;-91
2024/01/27 08:21:36;;;;;;;1.10;1.10;;;;;;;-1.72;95.79;100558.50;4999011;28;20038;-91
2024/01/27 08:24:02;;;;;;;1.10;1.10;;;;;;;-1.17;95.63;100554.72;4980950;28;20034;-91
2024/01/27 08:26:27;;;;;;;1.10;1.10;;;;;;;-1.16;93.51;100564.44;4988749;28;20034;-93
2024/01/27 08:28:55;;;;;;;1.20;1.20;;;;;;;-0.71;94.01;100561.19;4992267;28;20031;-93
2024/01/27 08:31:21;;;;;;;1.10;1.10;;;;;;;-0.27;93.99;100549.94;4977351;28;20031;-94
2024/01/27 08:33:46;;;;;;;1.20;1.20;;;;;;;0.16;92.01;100555.16;4975917;28;20456;-95
2024/01/27 08:36:15;;;;;;;1.10;1.10;;;;;;;0.25;90.81;100548.19;4994528;28;20118;-94
2024/01/27 08:39:31;;;;;;;1.10;1.10;;;;;;;0.52;90.12;100547.31;4982876;28;20076;-92
2024/01/27 08:42:48;;;;;;;1.10;1.10;;;;;;;1.62;92.36;100538.50;4988855;28;20088;-93
2024/01/27 08:45:23;;;;;;;1.00;1.00;;;;;;;1.96;91.62;100529.38;4976766;28;20105;-93
2024/01/27 08:48:01;;;;;;;1.00;1.00;;;;;;;2.62;90.37;100522.16;4997111;28;20042;-94
2024/01/27 08:50:26;;;;;;;1.00;1.00;;;;;;;2.81;89.84;100528.28;4983601;28;20034;-94
2024/01/27 08:52:51;;;;;;;1.00;1.00;;;;;;;3.38;91.05;100521.75;4975916;28;20023;-94
2024/01/27 08:55:19;;;;;;;1.00;1.00;;;;;;;3.79;90.23;100512.09;4993070;28;20049;-91
2024/01/27 08:57:53;;;;;;;0.90;0.90;;;;;;;4.05;88.70;100514.25;5009814;28;20033;-91
2024/01/27 09:00:25;;;;;;;0.90;0.90;;;;;;;4.45;85.92;100507.91;5008871;28;20049;-94
2024/01/27 09:02:52;;;;;;;1.00;1.00;;;;;;;4.36;83.37;100497.53;4993344;28;20054;-94
2024/01/27 09:05:17;;;;;;;0.90;0.90;;;;;;;4.35;83.16;100500.94;5000316;28;20030;-94
2024/01/27 09:07:43;;;;;;;0.90;0.90;;;;;;;4.68;81.79;100504.47;4984124;28;20558;-94
2024/01/27 09:32:57;;;;;;;0.80;0.80;;;;;;;6.66;76.83;100475.59;5001190;28;20502;-95
2024/01/27 09:40:54;;;;;;;0.70;0.70;;;;;;;7.64;72.20;100479.84;4901337;29;20047;-96
2024/01/27 09:45:07;;;;;;;0.70;0.70;;;;;;;7.38;70.99;100486.00;4871128;29;20041;-95
2024/01/27 09:48:18;;;;;;;0.77;0.77;;;;;;;7.41;69.80;100491.50;4836200;29;20160;-95
2024/01/27 09:51:29;;;;;;;0.70;0.70;;;;;;;6.69;70.64;100502.31;4857332;29;20104;-95
2024/01/27 09:54:20;;;;;;;0.70;0.70;;;;;;;8.15;75.68;100505.47;4929157;29;20079;-95
2024/01/27 09:57:34;;;;;;;0.70;0.70;;;;;;;7.96;74.66;100506.88;4935275;29;20040;-96
2024/01/27 10:01:40;;;;;;;0.70;0.70;;;;;;;8.14;74.79;100500.94;4991430;28;20130;-94
2024/01/27 10:04:23;;;;;;;0.70;0.70;;;;;;;8.78;73.15;100514.97;5001162;28;20060;-94
2024/01/27 10:08:11;;;;;;;0.70;0.70;;;;;;;6.92;70.81;100531.44;4993538;28;20131;-95
2024/01/27 10:11:52;;;;;;;0.70;0.70;;;;;;;7.30;68.50;100535.91;4994995;28;20804;-94
2024/01/27 10:15:31;;;;;;;0.60;0.60;;;;;;;8.14;69.65;100532.84;4995570;28;20044;-93
2024/01/27 10:18:07;;;;;;;0.60;0.60;;;;;;;7.82;69.29;100522.69;4994879;28;20041;-92
2024/01/27 10:20:33;;;;;;;0.60;0.60;;;;;;;8.80;69.15;100524.88;4975167;28;20045;-92
2024/01/27 10:23:11;;;;;;;0.50;0.50;;;;;;;10.47;71.12;100525.44;4980555;28;20041;-94
2024/01/27 10:25:39;;;;;;;0.50;0.50;;;;;;;10.95;60.74;100521.06;5000530;28;20488;-92
2024/01/27 10:28:17;;;;;;;0.40;0.40;;;;;;;9.49;67.90;100523.94;4984062;28;20030;-93
2024/01/27 10:30:43;;;;;;;0.40;0.40;;;;;;;10.88;64.16;100518.91;4981457;28;20090;-93
2024/01/27 10:33:15;;;;;;;0.43;0.43;;;;;;;11.79;59.92;100519.44;4976594;28;20031;-92
2024/01/27 10:35:58;;;;;;;0.40;0.40;;;;;;;11.93;55.24;100517.47;4991731;28;20046;-92
2024/01/27 10:38:36;;;;;;;0.47;0.47;;;;;;;12.74;61.69;100513.56;4986214;28;20650;-92
2024/01/27 10:41:10;;;;;;;0.45;0.45;;;;;;;13.20;56.19;100500.63;4980148;28;20488;-93
2024/01/27 10:43:39;;;;;;;0.40;0.40;;;;;;;13.09;55.84;100502.81;4987201;28;20133;-93
2024/01/27 10:46:09;;;;;;;0.40;0.40;;;;;;;12.77;53.49;100501.25;4992203;28;20049;-92
2024/01/27 10:48:36;;;;;;;0.40;0.40;;;;;;;12.68;53.88;100502.56;4988111;28;20467;-94
2024/01/27 10:51:10;;;;;;;0.40;0.40;;;;;;;12.18;53.02;100499.22;4994583;28;20053;-92
2024/01/27 10:53:39;;;;;;;0.40;0.40;;;;;;;12.32;56.65;100484.78;4997713;28;20136;-90
2024/01/27 10:56:09;;;;;;;0.40;0.40;;;;;;;13.41;50.15;100476.63;4987826;28;20030;-94
2024/01/27 10:58:40;;;;;;;0.30;0.30;;;;;;;12.95;46.74;100474.44;5011014;28;20022;-93
2024/01/27 11:01:11;;;;;;;0.30;0.30;;;;;;;12.67;48.31;100484.69;5025143;28;20038;-93
2024/01/27 11:03:39;;;;;;;0.40;0.40;;;;;;;14.24;49.03;100481.19;4992216;28;20133;-92
2024/01/27 11:06:06;;;;;;;0.40;0.40;;;;;;;14.21;46.13;100474.78;4976935;28;20026;-92
2024/01/27 11:08:33;;;;;;;0.40;0.40;;;;;;;14.43;44.99;100464.09;4987108;28;20078;-92
2024/01/27 11:11:00;;;;;;;0.30;0.30;;;;;;;12.27;48.38;100480.03;5013699;28;20049;-92
2024/01/27 11:13:28;;;;;;;0.40;0.40;;;;;;;14.07;44.54;100469.72;4981066;28;20030;-93
2024/01/27 11:15:54;;;;;;;0.32;0.32;;;;;;;15.02;42.12;100443.19;4993826;28;20042;-93
2024/01/27 11:18:20;;;;;;;0.30;0.30;;;;;;;15.21;44.25;100445.72;4967064;28;20030;-92
2024/01/27 11:20:46;;;;;;;0.40;0.40;;;;;;;13.85;44.02;100448.22;4997240;28;20053;-94
2024/01/27 11:23:14;;;;;;;0.38;0.38;;;;;;;13.65;40.18;100428.53;4983265;28;20129;-94
2024/01/27 11:25:40;;;;;;;0.30;0.30;;;;;;;12.08;46.81;100432.69;4994070;28;20044;-94
2024/01/27 11:28:14;;;;;;;0.30;0.30;;;;;;;13.44;44.90;100420.47;4997000;28;20034;-92
2024/01/27 11:30:39;;;;;;;0.30;0.30;;;;;;;14.28;41.59;100424.09;4978298;28;20097;-93
2024/01/27 11:33:05;;;;;;;0.30;0.30;;;;;;;14.75;41.85;100418.84;4974165;28;20038;-92
2024/01/27 11:35:31;;;;;;;0.40;0.40;;;;;;;15.22;40.88;100411.69;4972825;28;20022;-93
2024/01/27 11:37:56;;;;;;;0.40;0.40;;;;;;;15.72;40.13;100402.81;4994951;28;20121;-93
2024/01/27 11:40:21;;;;;;;0.30;0.30;;;;;;;15.32;40.65;100409.38;4997034;28;20042;-93
2024/01/27 11:42:57;;;;;;;0.30;0.30;;;;;;;13.43;41.27;100396.28;4989795;28;20063;-93
2024/01/27 11:45:23;;;;;;;0.30;0.30;;;;;;;12.66;43.68;100402.50;4976707;28;20474;-93
2024/01/27 11:47:49;;;;;;;0.40;0.40;;;;;;;15.47;40.45;100394.69;4997717;28;20477;-93
2024/01/27 11:50:20;;;;;;;0.40;0.40;;;;;;;16.23;36.98;100396.47;4989061;28;20133;-93
2024/01/27 11:52:46;;;;;;;0.40;0.40;;;;;;;17.22;35.80;100385.22;4993027;28;20833;-91
2024/01/27 11:55:15;;;;;;;0.40;0.40;;;;;;;17.81;35.25;100380.59;4977269;28;20021;-92
2024/01/27 11:57:42;;;;;;;0.30;0.30;;;;;;;17.79;33.45;100383.25;4997561;28;20034;-92
2024/01/27 12:00:09;;;;;;;0.40;0.40;;;;;;;17.10;34.84;100384.00;4988335;28;20053;-93